Historique des mesures à Cassis (13260), France
Quotidien Résumé Aout 8, 2021 Unités:  Métrique    US   Métrique/US
Quotidien Hebdomadaire Mensuel Annuel
  Maximum: Minimum: Moyenne:
Température: 17.9 °C 12.5 °C 14.7 °C
Point de rosée: 8.6 °C 1.5 °C 4.9 °C
Humidité: 64% 46% 52%
Vitesse du vent: 16.6km/h 0km/h 7.8km/h
Rafales: 25.6km/h - -
Vent- - West
Pression: 1012.3 hPa 1008.1 hPa -
Précipitations: 0.0 mm    
Historical Graphs
 
 
Mesures pour : Aout 8, 2021
Heure Temperature Point de rosée Pression Vent Vitesse du vent Rafales Humidité Pluie (par heure)
00:10 14.2 °C 3.7 °C 1010.1 hPa NNE 16.6 km/h 23.4 km/h 49% 0.0 mm
01:11 14.4 °C 3.2 °C 1009.8 hPa NW 10.8 km/h 16.6 km/h 47% 0.0 mm
02:10 14.4 °C 3.2 °C 1009.3 hPa NW 11.9 km/h 16.9 km/h 47% 0.0 mm
03:11 14.2 °C 4 °C 1009.2 hPa NNW 7.9 km/h 16.9 km/h 50% 0.0 mm
04:10 13.9 °C 3.1 °C 1008.8 hPa NW 14 km/h 17.3 km/h 48% 0.0 mm
05:11 13.4 °C 2.6 °C 1008.8 hPa NW 4 km/h 13 km/h 48% 0.0 mm
06:10 13.3 °C 2.5 °C 1008.8 hPa WSW 14.4 km/h 23 km/h 48% 0.0 mm
07:11 12.5 °C 1.7 °C 1008.3 hPa NNW 10.1 km/h 19.1 km/h 48% 0.0 mm
08:10 12.9 °C 1.5 °C 1008.4 hPa NNW 5.8 km/h 20.5 km/h 46% 0.0 mm
09:11 13.4 °C 2.3 °C 1008.3 hPa NW 14 km/h 14.8 km/h 47% 0.0 mm
10:10 14.5 °C 3.6 °C 1008.2 hPa West 6.5 km/h 16.6 km/h 48% 0.0 mm
11:11 15.4 °C 3.8 °C 1008.6 hPa NNW 5 km/h 25.6 km/h 46% 0.0 mm
12:10 16.9 °C 5.1 °C 1008.1 hPa West 4 km/h 15.5 km/h 46% 0.0 mm
13:11 17.5 °C 6 °C 1008.3 hPa WNW 5.4 km/h 15.1 km/h 47% 0.0 mm
14:10 17.9 °C 6 °C 1008.4 hPa Calm   10.4 km/h 46% 0.0 mm
15:11 17.1 °C 6.8 °C 1008.7 hPa WNW 8.3 km/h 8.6 km/h 51% 0.0 mm
16:10 16.1 °C 8.6 °C 1009.5 hPa WNW 4.3 km/h 7.2 km/h 61% 0.0 mm
17:11 15.8 °C 7.8 °C 1009.9 hPa North 3.2 km/h 5 km/h 59% 0.0 mm
18:10 14.8 °C 6.9 °C 1010.6 hPa Calm   5.8 km/h 59% 0.0 mm
19:11 14.2 °C 6.8 °C 1011.3 hPa WNW 8.6 km/h 15.8 km/h 61% 0.0 mm
20:10 14.1 °C 6.9 °C 1011.5 hPa NNW 11.5 km/h 20.2 km/h 62% 0.0 mm
21:11 13.6 °C 6.9 °C 1011.8 hPa NW 7.6 km/h 7.6 km/h 64% 0.0 mm
22:10 13.9 °C 7 °C 1012.1 hPa NW 9.4 km/h 14 km/h 63% 0.0 mm
23:11 14.1 °C 6.9 °C 1012.3 hPa North 2.9 km/h 7.2 km/h 62% 0.0 mm
Observations météo à CASSIS
WU-History script by Weather Underground - 2 mb